Terminal Aerodrome Forecast
Issued by NWS Duluth, MN

Home | Current Version | Previous Version | Text Only | Print | Product List | Glossary On
Versions: 1 2 3 4 5 6 7 8 9 10 11 12 13 14 15 16 17 18 19 20 21 22
699
FTUS43 KDLH 030350 AAC
TAFDLH
TAF AMD
KDLH 030350Z 0304/0324 01014KT 2SM -SN SCT015 OVC025
      TEMPO 0304/0308 3/4SM -SN OVC012
     FM031000 35012G20KT P6SM BKN025 OVC040
     FM032000 33014G22KT P6SM SCT040=

USA.gov is the U.S. government's official web portal to all federal, state and local government web resources and services.